sensor_id;sensor_type;location;lat;lon;timestamp;pressure;altitude;pressure_sealevel;temperature;humidity
21129;BME280;10722;51.910;8.352;2024-01-30T00:01:19;102056.84;;;5.17;96.92
21129;BME280;10722;51.910;8.352;2024-01-30T00:04:04;102044.44;;;5.10;96.91
21129;BME280;10722;51.910;8.352;2024-01-30T00:06:50;102043.94;;;5.16;96.98
21129;BME280;10722;51.910;8.352;2024-01-30T00:09:36;102043.25;;;5.19;96.94
21129;BME280;10722;51.910;8.352;2024-01-30T00:12:21;102046.41;;;5.29;96.82
21129;BME280;10722;51.910;8.352;2024-01-30T00:15:06;102046.06;;;5.23;96.59
21129;BME280;10722;51.910;8.352;2024-01-30T00:17:51;102036.41;;;5.19;96.64
21129;BME280;10722;51.910;8.352;2024-01-30T00:20:36;102037.13;;;5.16;96.03
21129;BME280;10722;51.910;8.352;2024-01-30T00:23:21;102029.41;;;5.02;95.51
21129;BME280;10722;51.910;8.352;2024-01-30T00:26:06;102028.63;;;5.17;95.76
21129;BME280;10722;51.910;8.352;2024-01-30T00:28:50;102015.84;;;5.32;95.49
21129;BME280;10722;51.910;8.352;2024-01-30T00:31:35;102018.00;;;5.26;95.50
21129;BME280;10722;51.910;8.352;2024-01-30T00:34:25;102003.00;;;5.32;95.02
21129;BME280;10722;51.910;8.352;2024-01-30T00:37:10;102012.28;;;5.15;94.72
21129;BME280;10722;51.910;8.352;2024-01-30T00:39:56;102010.63;;;5.03;94.75
21129;BME280;10722;51.910;8.352;2024-01-30T00:42:42;102014.06;;;5.03;95.01
21129;BME280;10722;51.910;8.352;2024-01-30T00:45:27;102008.50;;;4.96;95.27
21129;BME280;10722;51.910;8.352;2024-01-30T00:48:12;102016.19;;;4.96;95.38
21129;BME280;10722;51.910;8.352;2024-01-30T00:50:57;102011.84;;;4.94;96.08
21129;BME280;10722;51.910;8.352;2024-01-30T00:53:42;102015.03;;;4.90;95.92
21129;BME280;10722;51.910;8.352;2024-01-30T00:56:27;102013.66;;;4.82;95.74
21129;BME280;10722;51.910;8.352;2024-01-30T00:59:12;102013.66;;;4.82;96.02
21129;BME280;10722;51.910;8.352;2024-01-30T01:01:58;102019.72;;;4.69;96.95
21129;BME280;10722;51.910;8.352;2024-01-30T01:04:43;102013.50;;;4.66;96.86
21129;BME280;10722;51.910;8.352;2024-01-30T01:07:29;102025.22;;;5.04;96.79
21129;BME280;10722;51.910;8.352;2024-01-30T01:10:15;102018.81;;;4.69;96.71
21129;BME280;10722;51.910;8.352;2024-01-30T01:13:00;102020.22;;;4.64;97.02
21129;BME280;10722;51.910;8.352;2024-01-30T01:15:46;102025.13;;;4.74;97.12
21129;BME280;10722;51.910;8.352;2024-01-30T01:18:31;102021.91;;;4.63;97.39
21129;BME280;10722;51.910;8.352;2024-01-30T01:21:16;102019.13;;;4.74;98.06
21129;BME280;10722;51.910;8.352;2024-01-30T01:24:00;102022.53;;;4.87;97.60
21129;BME280;10722;51.910;8.352;2024-01-30T01:26:45;102025.03;;;4.72;97.34
21129;BME280;10722;51.910;8.352;2024-01-30T01:29:30;102021.38;;;4.69;97.99
21129;BME280;10722;51.910;8.352;2024-01-30T01:32:15;102020.03;;;4.47;98.40
21129;BME280;10722;51.910;8.352;2024-01-30T01:35:01;102026.56;;;4.42;98.62
21129;BME280;10722;51.910;8.352;2024-01-30T01:37:46;102024.59;;;4.25;98.82
21129;BME280;10722;51.910;8.352;2024-01-30T01:40:31;102020.97;;;4.35;99.54
21129;BME280;10722;51.910;8.352;2024-01-30T01:43:16;102026.56;;;4.42;99.71
21129;BME280;10722;51.910;8.352;2024-01-30T01:46:02;102022.22;;;4.41;100.00
21129;BME280;10722;51.910;8.352;2024-01-30T01:48:47;102038.97;;;4.36;100.00
21129;BME280;10722;51.910;8.352;2024-01-30T01:51:34;102043.72;;;4.57;100.00
21129;BME280;10722;51.910;8.352;2024-01-30T01:54:21;102035.81;;;4.54;100.00
21129;BME280;10722;51.910;8.352;2024-01-30T01:57:06;102035.13;;;4.56;100.00
21129;BME280;10722;51.910;8.352;2024-01-30T01:59:51;102027.34;;;4.55;100.00
21129;BME280;10722;51.910;8.352;2024-01-30T02:02:38;102023.38;;;4.60;100.00
21129;BME280;10722;51.910;8.352;2024-01-30T02:05:24;102024.28;;;4.60;100.00
21129;BME280;10722;51.910;8.352;2024-01-30T02:08:09;102019.16;;;4.60;100.00
21129;BME280;10722;51.910;8.352;2024-01-30T02:10:54;102014.31;;;4.65;100.00
21129;BME280;10722;51.910;8.352;2024-01-30T02:13:41;102015.09;;;4.64;100.00
21129;BME280;10722;51.910;8.352;2024-01-30T02:16:26;102008.00;;;4.73;100.00
21129;BME280;10722;51.910;8.352;2024-01-30T02:19:11;102015.47;;;4.70;100.00
21129;BME280;10722;51.910;8.352;2024-01-30T02:21:57;102011.44;;;4.74;100.00
21129;BME280;10722;51.910;8.352;2024-01-30T02:24:42;102010.91;;;4.79;100.00
21129;BME280;10722;51.910;8.352;2024-01-30T02:27:27;102006.66;;;4.80;100.00
21129;BME280;10722;51.910;8.352;2024-01-30T02:30:12;102003.41;;;4.82;100.00
21129;BME280;10722;51.910;8.352;2024-01-30T02:32:57;102003.09;;;4.91;100.00
21129;BME280;10722;51.910;8.352;2024-01-30T02:35:43;101996.91;;;4.87;100.00
21129;BME280;10722;51.910;8.352;2024-01-30T02:38:28;101995.41;;;4.91;100.00
21129;BME280;10722;51.910;8.352;2024-01-30T02:41:13;101994.69;;;4.93;100.00
21129;BME280;10722;51.910;8.352;2024-01-30T02:43:58;101991.44;;;4.96;100.00
21129;BME280;10722;51.910;8.352;2024-01-30T02:46:43;101990.16;;;4.89;100.00
21129;BME280;10722;51.910;8.352;2024-01-30T02:49:28;101982.75;;;4.94;100.00
21129;BME280;10722;51.910;8.352;2024-01-30T02:52:13;101974.16;;;4.79;100.00
21129;BME280;10722;51.910;8.352;2024-01-30T02:54:59;101975.94;;;4.94;100.00
21129;BME280;10722;51.910;8.352;2024-01-30T02:57:44;101966.19;;;4.89;100.00
21129;BME280;10722;51.910;8.352;2024-01-30T03:00:29;101960.72;;;4.83;100.00
21129;BME280;10722;51.910;8.352;2024-01-30T03:03:15;101964.66;;;4.78;100.00
21129;BME280;10722;51.910;8.352;2024-01-30T03:06:00;101965.94;;;4.84;100.00
21129;BME280;10722;51.910;8.352;2024-01-30T03:08:46;101965.66;;;4.80;100.00
21129;BME280;10722;51.910;8.352;2024-01-30T03:11:31;101969.09;;;4.80;100.00
21129;BME280;10722;51.910;8.352;2024-01-30T03:14:15;101965.13;;;4.85;100.00
21129;BME280;10722;51.910;8.352;2024-01-30T03:17:01;101966.91;;;4.86;100.00
21129;BME280;10722;51.910;8.352;2024-01-30T03:19:46;101965.34;;;4.75;100.00
21129;BME280;10722;51.910;8.352;2024-01-30T03:22:31;101969.91;;;4.79;100.00
21129;BME280;10722;51.910;8.352;2024-01-30T03:25:16;101966.72;;;4.83;100.00
21129;BME280;10722;51.910;8.352;2024-01-30T03:28:01;101961.75;;;4.86;100.00
21129;BME280;10722;51.910;8.352;2024-01-30T03:30:47;101960.00;;;4.85;100.00
21129;BME280;10722;51.910;8.352;2024-01-30T03:33:32;101949.97;;;4.75;100.00
21129;BME280;10722;51.910;8.352;2024-01-30T03:36:17;101958.75;;;4.79;100.00
21129;BME280;10722;51.910;8.352;2024-01-30T03:39:03;101943.75;;;4.85;100.00
21129;BME280;10722;51.910;8.352;2024-01-30T03:41:48;101946.03;;;4.80;100.00
21129;BME280;10722;51.910;8.352;2024-01-30T03:44:32;101944.34;;;4.81;100.00
21129;BME280;10722;51.910;8.352;2024-01-30T03:47:17;101940.19;;;4.83;100.00
21129;BME280;10722;51.910;8.352;2024-01-30T03:50:02;101946.19;;;4.83;100.00
21129;BME280;10722;51.910;8.352;2024-01-30T03:52:47;101948.72;;;4.97;100.00
21129;BME280;10722;51.910;8.352;2024-01-30T03:55:32;101941.09;;;4.98;100.00
21129;BME280;10722;51.910;8.352;2024-01-30T03:58:17;101940.22;;;4.98;100.00
21129;BME280;10722;51.910;8.352;2024-01-30T04:01:03;101932.53;;;4.98;100.00
21129;BME280;10722;51.910;8.352;2024-01-30T04:03:48;101930.66;;;4.95;100.00
21129;BME280;10722;51.910;8.352;2024-01-30T04:06:34;101931.22;;;5.04;100.00
21129;BME280;10722;51.910;8.352;2024-01-30T04:09:18;101925.91;;;5.01;100.00
21129;BME280;10722;51.910;8.352;2024-01-30T04:12:04;101924.41;;;5.05;100.00
21129;BME280;10722;51.910;8.352;2024-01-30T04:14:48;101922.63;;;5.04;100.00
21129;BME280;10722;51.910;8.352;2024-01-30T04:17:34;101924.31;;;5.03;100.00
21129;BME280;10722;51.910;8.352;2024-01-30T04:20:19;101920.97;;;5.04;100.00
21129;BME280;10722;51.910;8.352;2024-01-30T04:23:04;101915.44;;;4.98;100.00
21129;BME280;10722;51.910;8.352;2024-01-30T04:25:49;101916.06;;;4.94;100.00
21129;BME280;10722;51.910;8.352;2024-01-30T04:28:34;101908.84;;;5.02;100.00
21129;BME280;10722;51.910;8.352;2024-01-30T04:31:19;101908.03;;;5.03;100.00
21129;BME280;10722;51.910;8.352;2024-01-30T04:34:04;101913.16;;;5.03;100.00
21129;BME280;10722;51.910;8.352;2024-01-30T04:36:50;101916.72;;;5.05;100.00
21129;BME280;10722;51.910;8.352;2024-01-30T04:39:35;101927.16;;;5.08;100.00
21129;BME280;10722;51.910;8.352;2024-01-30T04:42:20;101920.97;;;5.19;100.00
21129;BME280;10722;51.910;8.352;2024-01-30T04:45:05;101914.25;;;5.21;100.00
21129;BME280;10722;51.910;8.352;2024-01-30T04:47:50;101912.38;;;5.19;100.00
21129;BME280;10722;51.910;8.352;2024-01-30T04:50:35;101913.72;;;5.27;100.00
21129;BME280;10722;51.910;8.352;2024-01-30T04:53:20;101907.97;;;5.16;100.00
21129;BME280;10722;51.910;8.352;2024-01-30T04:56:05;101912.91;;;5.13;100.00
21129;BME280;10722;51.910;8.352;2024-01-30T04:58:51;101902.03;;;5.02;100.00
21129;BME280;10722;51.910;8.352;2024-01-30T05:01:35;101908.84;;;5.02;100.00
21129;BME280;10722;51.910;8.352;2024-01-30T05:04:21;101909.19;;;5.08;100.00
21129;BME280;10722;51.910;8.352;2024-01-30T05:07:06;101913.63;;;5.10;100.00
21129;BME280;10722;51.910;8.352;2024-01-30T05:09:51;101905.81;;;5.09;100.00
21129;BME280;10722;51.910;8.352;2024-01-30T05:12:40;101908.47;;;4.96;100.00
21129;BME280;10722;51.910;8.352;2024-01-30T05:15:25;101909.03;;;5.05;100.00
21129;BME280;10722;51.910;8.352;2024-01-30T05:18:10;101906.97;;;4.99;100.00
21129;BME280;10722;51.910;8.352;2024-01-30T05:20:55;101903.25;;;4.94;100.00
21129;BME280;10722;51.910;8.352;2024-01-30T05:23:40;101901.31;;;4.90;100.00
21129;BME280;10722;51.910;8.352;2024-01-30T05:26:25;101910.84;;;4.92;100.00
21129;BME280;10722;51.910;8.352;2024-01-30T05:29:10;101910.84;;;4.92;100.00
21129;BME280;10722;51.910;8.352;2024-01-30T05:31:55;101909.44;;;4.98;100.00
21129;BME280;10722;51.910;8.352;2024-01-30T05:34:40;101913.88;;;5.00;100.00
21129;BME280;10722;51.910;8.352;2024-01-30T05:37:25;101912.63;;;5.08;100.00
21129;BME280;10722;51.910;8.352;2024-01-30T05:40:11;101907.22;;;5.04;100.00
21129;BME280;10722;51.910;8.352;2024-01-30T05:42:56;101908.03;;;5.03;100.00
21129;BME280;10722;51.910;8.352;2024-01-30T05:45:41;101897.53;;;5.13;100.00
21129;BME280;10722;51.910;8.352;2024-01-30T05:48:27;101903.38;;;5.10;100.00
21129;BME280;10722;51.910;8.352;2024-01-30T05:51:12;101902.19;;;5.05;100.00
21129;BME280;10722;51.910;8.352;2024-01-30T05:53:57;101897.69;;;5.01;100.00
21129;BME280;10722;51.910;8.352;2024-01-30T05:56:42;101889.72;;;4.97;100.00
21129;BME280;10722;51.910;8.352;2024-01-30T05:59:27;101892.28;;;4.97;100.00
21129;BME280;10722;51.910;8.352;2024-01-30T06:02:12;101895.84;;;4.99;100.00
21129;BME280;10722;51.910;8.352;2024-01-30T06:04:58;101895.22;;;5.03;100.00
21129;BME280;10722;51.910;8.352;2024-01-30T06:07:43;101891.66;;;5.01;100.00
21129;BME280;10722;51.910;8.352;2024-01-30T06:10:28;101896.38;;;5.08;100.00
21129;BME280;10722;51.910;8.352;2024-01-30T06:13:13;101894.41;;;5.04;100.00
21129;BME280;10722;51.910;8.352;2024-01-30T06:15:58;101892.28;;;5.11;100.00
21129;BME280;10722;51.910;8.352;2024-01-30T06:18:43;101906.38;;;5.18;100.00
21129;BME280;10722;51.910;8.352;2024-01-30T06:21:28;101890.44;;;5.09;100.00
21129;BME280;10722;51.910;8.352;2024-01-30T06:24:13;101891.59;;;5.14;100.00
21129;BME280;10722;51.910;8.352;2024-01-30T06:26:58;101892.41;;;5.13;100.00
21129;BME280;10722;51.910;8.352;2024-01-30T06:29:44;101883.63;;;5.09;100.00
21129;BME280;10722;51.910;8.352;2024-01-30T06:32:29;101883.91;;;5.14;100.00
21129;BME280;10722;51.910;8.352;2024-01-30T06:35:14;101885.59;;;5.13;100.00
21129;BME280;10722;51.910;8.352;2024-01-30T06:37:59;101881.50;;;5.17;100.00
21129;BME280;10722;51.910;8.352;2024-01-30T06:40:44;101878.41;;;5.08;100.00
21129;BME280;10722;51.910;8.352;2024-01-30T06:43:29;101878.06;;;5.02;100.00
21129;BME280;10722;51.910;8.352;2024-01-30T06:46:14;101879.22;;;5.07;100.00
21129;BME280;10722;51.910;8.352;2024-01-30T06:49:00;101884.34;;;5.07;100.00
21129;BME280;10722;51.910;8.352;2024-01-30T06:51:45;101885.41;;;5.10;100.00
21129;BME280;10722;51.910;8.352;2024-01-30T06:54:30;101890.59;;;5.12;100.00
21129;BME280;10722;51.910;8.352;2024-01-30T06:57:15;101885.06;;;5.04;100.00
21129;BME280;10722;51.910;8.352;2024-01-30T07:00:00;101894.50;;;5.05;100.00
21129;BME280;10722;51.910;8.352;2024-01-30T07:02:46;101885.13;;;5.06;100.00
21129;BME280;10722;51.910;8.352;2024-01-30T07:05:31;101887.09;;;5.10;100.00
21129;BME280;10722;51.910;8.352;2024-01-30T07:08:17;101886.09;;;5.08;100.00
21129;BME280;10722;51.910;8.352;2024-01-30T07:11:02;101897.25;;;5.23;100.00
21129;BME280;10722;51.910;8.352;2024-01-30T07:13:46;101897.41;;;5.26;100.00
21129;BME280;10722;51.910;8.352;2024-01-30T07:16:31;101894.25;;;5.30;100.00
21129;BME280;10722;51.910;8.352;2024-01-30T07:19:17;101888.94;;;5.27;100.00
21129;BME280;10722;51.910;8.352;2024-01-30T07:22:02;101884.16;;;5.33;100.00
21129;BME280;10722;51.910;8.352;2024-01-30T07:24:47;101879.56;;;5.28;100.00
21129;BME280;10722;51.910;8.352;2024-01-30T07:27:32;101885.38;;;5.40;100.00
21129;BME280;10722;51.910;8.352;2024-01-30T07:30:17;101876.00;;;5.40;100.00
21129;BME280;10722;51.910;8.352;2024-01-30T07:33:02;101882.19;;;5.29;100.00
21129;BME280;10722;51.910;8.352;2024-01-30T07:35:48;101881.41;;;5.30;100.00
21129;BME280;10722;51.910;8.352;2024-01-30T07:38:32;101881.22;;;5.42;100.00
21129;BME280;10722;51.910;8.352;2024-01-30T07:41:18;101881.66;;;5.50;100.00
21129;BME280;10722;51.910;8.352;2024-01-30T07:44:03;101881.50;;;5.47;100.00
21129;BME280;10722;51.910;8.352;2024-01-30T07:46:48;101881.66;;;5.50;100.00
21129;BME280;10722;51.910;8.352;2024-01-30T07:49:33;101887.03;;;5.54;100.00
21129;BME280;10722;51.910;8.352;2024-01-30T07:52:18;101889.06;;;5.60;100.00
21129;BME280;10722;51.910;8.352;2024-01-30T07:55:04;101885.72;;;5.61;100.00
21129;BME280;10722;51.910;8.352;2024-01-30T07:57:53;101892.56;;;5.60;100.00
21129;BME280;10722;51.910;8.352;2024-01-30T08:00:38;101888.63;;;5.67;100.00
21129;BME280;10722;51.910;8.352;2024-01-30T08:03:24;101885.53;;;5.73;100.00
21129;BME280;10722;51.910;8.352;2024-01-30T08:06:09;101880.66;;;5.77;100.00
21129;BME280;10722;51.910;8.352;2024-01-30T08:08:54;101877.34;;;5.80;100.00
21129;BME280;10722;51.910;8.352;2024-01-30T08:11:39;101876.63;;;5.82;100.00
21129;BME280;10722;51.910;8.352;2024-01-30T08:14:24;101876.34;;;5.93;100.00
21129;BME280;10722;51.910;8.352;2024-01-30T08:17:10;101871.66;;;5.85;100.00
21129;BME280;10722;51.910;8.352;2024-01-30T08:19:55;101876.66;;;5.97;100.00
21129;BME280;10722;51.910;8.352;2024-01-30T08:22:40;101874.47;;;6.05;100.00
21129;BME280;10722;51.910;8.352;2024-01-30T08:25:26;101883.47;;;6.13;100.00
21129;BME280;10722;51.910;8.352;2024-01-30T08:28:11;101876.47;;;5.94;100.00
21129;BME280;10722;51.910;8.352;2024-01-30T08:30:56;101879.28;;;5.99;100.00
21129;BME280;10722;51.910;8.352;2024-01-30T08:33:42;101882.16;;;6.05;100.00
21129;BME280;10722;51.910;8.352;2024-01-30T08:36:28;101886.59;;;6.07;100.00
21129;BME280;10722;51.910;8.352;2024-01-30T08:39:14;101887.59;;;6.26;100.00
21129;BME280;10722;51.910;8.352;2024-01-30T08:41:59;101884.47;;;6.32;100.00
21129;BME280;10722;51.910;8.352;2024-01-30T08:44:44;101879.75;;;6.39;100.00
21129;BME280;10722;51.910;8.352;2024-01-30T08:47:36;101872.50;;;6.48;100.00
21129;BME280;10722;51.910;8.352;2024-01-30T08:50:21;101882.22;;;6.70;100.00
21129;BME280;10722;51.910;8.352;2024-01-30T08:53:06;101877.56;;;6.80;100.00
21129;BME280;10722;51.910;8.352;2024-01-30T08:55:51;101869.16;;;7.00;100.00
21129;BME280;10722;51.910;8.352;2024-01-30T08:58:36;101880.69;;;6.90;100.00
21129;BME280;10722;51.910;8.352;2024-01-30T09:01:22;101872.69;;;7.02;100.00
21129;BME280;10722;51.910;8.352;2024-01-30T09:04:07;101870.28;;;7.23;100.00
21129;BME280;10722;51.910;8.352;2024-01-30T09:06:52;101870.03;;;7.35;100.00
21129;BME280;10722;51.910;8.352;2024-01-30T09:09:39;101868.47;;;7.38;100.00
21129;BME280;10722;51.910;8.352;2024-01-30T09:12:24;101857.38;;;7.57;100.00
21129;BME280;10722;51.910;8.352;2024-01-30T09:15:09;101858.97;;;7.73;100.00
21129;BME280;10722;51.910;8.352;2024-01-30T09:17:54;101846.81;;;7.71;100.00
21129;BME280;10722;51.910;8.352;2024-01-30T09:20:40;101851.47;;;7.78;100.00
21129;BME280;10722;51.910;8.352;2024-01-30T09:23:26;101839.16;;;7.90;100.00
21129;BME280;10722;51.910;8.352;2024-01-30T09:26:12;101847.53;;;8.04;100.00
21129;BME280;10722;51.910;8.352;2024-01-30T09:28:57;101832.22;;;8.26;100.00
21129;BME280;10722;51.910;8.352;2024-01-30T09:31:46;101829.53;;;8.25;100.00
21129;BME280;10722;51.910;8.352;2024-01-30T09:34:31;101837.94;;;8.39;100.00
21129;BME280;10722;51.910;8.352;2024-01-30T09:37:17;101826.22;;;8.45;100.00
21129;BME280;10722;51.910;8.352;2024-01-30T09:40:02;101827.06;;;8.65;100.00
21129;BME280;10722;51.910;8.352;2024-01-30T09:42:50;101818.31;;;8.62;99.64
21129;BME280;10722;51.910;8.352;2024-01-30T09:45:35;101816.03;;;8.69;99.11
21129;BME280;10722;51.910;8.352;2024-01-30T09:48:21;101814.28;;;8.68;98.47
21129;BME280;10722;51.910;8.352;2024-01-30T09:51:07;101806.91;;;8.57;98.45
21129;BME280;10722;51.910;8.352;2024-01-30T09:53:54;101812.53;;;8.67;97.95
21129;BME280;10722;51.910;8.352;2024-01-30T09:56:39;101805.22;;;8.78;97.54
21129;BME280;10722;51.910;8.352;2024-01-30T09:59:24;101807.25;;;8.85;97.05
21129;BME280;10722;51.910;8.352;2024-01-30T10:02:10;101804.69;;;8.85;96.82
21129;BME280;10722;51.910;8.352;2024-01-30T10:04:55;101803.97;;;8.89;96.39
21129;BME280;10722;51.910;8.352;2024-01-30T10:07:50;101805.13;;;8.96;95.96
21129;BME280;10722;51.910;8.352;2024-01-30T10:10:35;101798.19;;;9.16;95.44
21129;BME280;10722;51.910;8.352;2024-01-30T10:13:21;101799.19;;;9.19;95.07
21129;BME280;10722;51.910;8.352;2024-01-30T10:16:06;101793.63;;;9.31;94.41
21129;BME280;10722;51.910;8.352;2024-01-30T10:18:51;101796.22;;;9.31;94.22
21129;BME280;10722;51.910;8.352;2024-01-30T10:21:37;101802.44;;;9.36;93.69
21129;BME280;10722;51.910;8.352;2024-01-30T10:24:25;101799.31;;;9.43;93.53
21129;BME280;10722;51.910;8.352;2024-01-30T10:27:10;101804.06;;;9.55;93.07
21129;BME280;10722;51.910;8.352;2024-01-30T10:29:55;101804.81;;;9.75;92.66
21129;BME280;10722;51.910;8.352;2024-01-30T10:32:40;101787.78;;;9.80;91.76
21129;BME280;10722;51.910;8.352;2024-01-30T10:35:26;101786.59;;;9.95;91.20
21129;BME280;10722;51.910;8.352;2024-01-30T10:38:13;101765.63;;;9.87;90.55
21129;BME280;10722;51.910;8.352;2024-01-30T10:41:01;101760.13;;;10.02;90.37
21129;BME280;10722;51.910;8.352;2024-01-30T10:44:02;101755.34;;;10.13;89.92
21129;BME280;10722;51.910;8.352;2024-01-30T10:47:02;101760.50;;;10.35;89.52
21129;BME280;10722;51.910;8.352;2024-01-30T10:49:49;101746.84;;;10.39;89.19
21129;BME280;10722;51.910;8.352;2024-01-30T10:52:34;101746.31;;;10.49;88.52
21129;BME280;10722;51.910;8.352;2024-01-30T10:55:21;101735.94;;;10.48;88.07
21129;BME280;10722;51.910;8.352;2024-01-30T10:58:07;101748.91;;;10.49;88.44
21129;BME280;10722;51.910;8.352;2024-01-30T11:00:54;101745.44;;;10.49;88.27
21129;BME280;10722;51.910;8.352;2024-01-30T11:03:40;101744.78;;;10.54;88.09
21129;BME280;10722;51.910;8.352;2024-01-30T11:06:26;101744.69;;;10.51;87.80
21129;BME280;10722;51.910;8.352;2024-01-30T11:09:11;101753.50;;;10.58;87.72
21129;BME280;10722;51.910;8.352;2024-01-30T11:11:57;101741.81;;;10.69;87.52
21129;BME280;10722;51.910;8.352;2024-01-30T11:14:43;101751.19;;;10.66;87.47
21129;BME280;10722;51.910;8.352;2024-01-30T11:17:28;101741.81;;;10.69;87.00
21129;BME280;10722;51.910;8.352;2024-01-30T11:20:27;101737.84;;;10.79;86.74
21129;BME280;10722;51.910;8.352;2024-01-30T11:23:12;101739.84;;;10.88;86.41
21129;BME280;10722;51.910;8.352;2024-01-30T11:25:57;101735.78;;;10.96;86.28
21129;BME280;10722;51.910;8.352;2024-01-30T11:28:52;101736.84;;;11.01;85.51
21129;BME280;10722;51.910;8.352;2024-01-30T11:31:38;101742.13;;;11.06;85.85
21129;BME280;10722;51.910;8.352;2024-01-30T11:34:23;101741.53;;;11.14;85.46
21129;BME280;10722;51.910;8.352;2024-01-30T11:37:11;101732.72;;;11.08;85.25
21129;BME280;10722;51.910;8.352;2024-01-30T11:39:58;101740.63;;;11.12;84.98
21129;BME280;10722;51.910;8.352;2024-01-30T11:42:43;101728.50;;;11.11;84.97
21129;BME280;10722;51.910;8.352;2024-01-30T11:45:29;101728.00;;;11.23;84.43
21129;BME280;10722;51.910;8.352;2024-01-30T11:48:14;101729.09;;;11.30;84.54
21129;BME280;10722;51.910;8.352;2024-01-30T11:50:59;101721.34;;;11.31;84.39
21129;BME280;10722;51.910;8.352;2024-01-30T11:53:49;101726.31;;;11.24;84.45
21129;BME280;10722;51.910;8.352;2024-01-30T11:56:34;101733.25;;;11.25;84.80
21129;BME280;10722;51.910;8.352;2024-01-30T11:59:21;101729.91;;;11.29;84.76
21129;BME280;10722;51.910;8.352;2024-01-30T12:02:05;101741.28;;;11.34;84.74
21129;BME280;10722;51.910;8.352;2024-01-30T12:04:51;101755.44;;;11.45;84.90
21129;BME280;10722;51.910;8.352;2024-01-30T12:07:36;101742.56;;;11.48;84.60
21129;BME280;10722;51.910;8.352;2024-01-30T12:10:22;101737.47;;;11.51;84.26
21129;BME280;10722;51.910;8.352;2024-01-30T12:13:07;101740.06;;;11.51;84.52
21129;BME280;10722;51.910;8.352;2024-01-30T12:15:52;101737.53;;;11.53;84.29
21129;BME280;10722;51.910;8.352;2024-01-30T12:18:37;101737.69;;;11.57;84.12
21129;BME280;10722;51.910;8.352;2024-01-30T12:21:23;101749.72;;;11.55;84.29
21129;BME280;10722;51.910;8.352;2024-01-30T12:24:08;101766.28;;;11.60;84.37
21129;BME280;10722;51.910;8.352;2024-01-30T12:26:56;101756.47;;;11.50;84.54
21129;BME280;10722;51.910;8.352;2024-01-30T12:29:42;101756.00;;;11.63;84.45
21129;BME280;10722;51.910;8.352;2024-01-30T12:32:27;101746.53;;;11.65;83.95
21129;BME280;10722;51.910;8.352;2024-01-30T12:35:15;101756.91;;;11.65;83.86
21129;BME280;10722;51.910;8.352;2024-01-30T12:38:02;101756.81;;;11.62;83.85
21129;BME280;10722;51.910;8.352;2024-01-30T12:40:47;101772.28;;;11.59;84.25
21129;BME280;10722;51.910;8.352;2024-01-30T12:43:32;101774.25;;;11.66;84.37
21129;BME280;10722;51.910;8.352;2024-01-30T12:46:29;101785.53;;;11.69;84.48
21129;BME280;10722;51.910;8.352;2024-01-30T12:49:14;101794.22;;;11.71;84.79
21129;BME280;10722;51.910;8.352;2024-01-30T12:52:00;101783.22;;;11.78;84.49
21129;BME280;10722;51.910;8.352;2024-01-30T12:54:45;101775.63;;;11.84;84.68
21129;BME280;10722;51.910;8.352;2024-01-30T12:57:30;101777.34;;;11.83;84.28
21129;BME280;10722;51.910;8.352;2024-01-30T13:00:16;101775.72;;;11.85;84.31
21129;BME280;10722;51.910;8.352;2024-01-30T13:03:01;101775.38;;;12.05;84.22
21129;BME280;10722;51.910;8.352;2024-01-30T13:05:46;101778.88;;;12.05;84.41
21129;BME280;10722;51.910;8.352;2024-01-30T13:08:31;101775.34;;;12.03;84.21
21129;BME280;10722;51.910;8.352;2024-01-30T13:11:16;101766.00;;;12.10;84.04
21129;BME280;10722;51.910;8.352;2024-01-30T13:14:05;101773.69;;;12.05;84.05
21129;BME280;10722;51.910;8.352;2024-01-30T13:16:50;101783.44;;;12.14;83.95
21129;BME280;10722;51.910;8.352;2024-01-30T13:19:35;101782.56;;;12.14;84.12
21129;BME280;10722;51.910;8.352;2024-01-30T13:22:20;101781.72;;;12.16;84.21
21129;BME280;10722;51.910;8.352;2024-01-30T13:25:05;101782.56;;;12.14;84.12
21129;BME280;10722;51.910;8.352;2024-01-30T13:27:50;101785.75;;;12.05;84.77
21129;BME280;10722;51.910;8.352;2024-01-30T13:30:36;101800.66;;;12.12;85.08
21129;BME280;10722;51.910;8.352;2024-01-30T13:33:21;101811.91;;;12.13;85.21
21129;BME280;10722;51.910;8.352;2024-01-30T13:36:07;101808.28;;;12.07;85.46
21129;BME280;10722;51.910;8.352;2024-01-30T13:38:52;101817.84;;;12.08;86.21
21129;BME280;10722;51.910;8.352;2024-01-30T13:41:37;101818.75;;;12.10;86.52
21129;BME280;10722;51.910;8.352;2024-01-30T13:44:23;101833.53;;;12.13;86.59
21129;BME280;10722;51.910;8.352;2024-01-30T13:47:07;101835.22;;;12.11;87.33
21129;BME280;10722;51.910;8.352;2024-01-30T13:49:52;101829.25;;;12.14;87.25
21129;BME280;10722;51.910;8.352;2024-01-30T13:52:38;101821.50;;;12.15;87.49
21129;BME280;10722;51.910;8.352;2024-01-30T13:55:29;101824.16;;;12.17;87.71
21129;BME280;10722;51.910;8.352;2024-01-30T13:58:14;101834.38;;;12.12;87.85
21129;BME280;10722;51.910;8.352;2024-01-30T14:01:00;101834.31;;;12.10;87.77
21129;BME280;10722;51.910;8.352;2024-01-30T14:03:45;101829.97;;;12.09;87.74
21129;BME280;10722;51.910;8.352;2024-01-30T14:06:30;101851.66;;;12.11;88.07
21129;BME280;10722;51.910;8.352;2024-01-30T14:09:16;101849.88;;;12.10;87.92
21129;BME280;10722;51.910;8.352;2024-01-30T14:12:01;101847.28;;;12.10;88.07
21129;BME280;10722;51.910;8.352;2024-01-30T14:14:46;101849.84;;;12.09;88.25
21129;BME280;10722;51.910;8.352;2024-01-30T14:17:31;101863.69;;;12.09;88.02
21129;BME280;10722;51.910;8.352;2024-01-30T14:20:16;101847.28;;;12.10;88.00
21129;BME280;10722;51.910;8.352;2024-01-30T14:23:01;101856.00;;;12.13;87.60
21129;BME280;10722;51.910;8.352;2024-01-30T14:25:46;101840.44;;;12.13;87.40
21129;BME280;10722;51.910;8.352;2024-01-30T14:28:30;101848.81;;;12.02;87.71